Time;durP1;ratioP1;P1;durP2;ratioP2;P2;SDS_P1;SDS_P2;PMS_P1;PMS_P2;Temp;Humidity;BMP_temperature;BMP_pressure;BME280_temperature;BME280_humidity;BME280_pressure;Samples;Min_cycle;Max_cycle;Signal;HPM_P1;HPM_P2
2021/09/08 00:02:24;;;;;;;;;;;;;;;;;;5053740;28;19909;-80
2021/09/08 00:04:49;;;;;;;;;;;;;;;;;;5053738;28;20337;-80
2021/09/08 00:07:15;;;;;;;;;;;;;;;;;;5053922;28;20392;-80
2021/09/08 00:09:40;;;;;;;;;;;;;;;;;;5053711;28;19913;-80
2021/09/08 00:12:05;;;;;;;;;;;;;;;;;;5054094;28;19913;-80
2021/09/08 00:14:31;;;;;;;;;;;;;;;;;;5053820;28;19999;-80
2021/09/08 00:16:56;;;;;;;;;;;;;;;;;;5052606;28;19913;-80
2021/09/08 00:19:21;;;;;;;;;;;;;;;;;;5053887;28;19924;-80
2021/09/08 00:21:47;;;;;;;;;;;;;;;;;;5053782;28;20416;-80
2021/09/08 00:24:12;;;;;;;;;;;;;;;;;;5053444;28;19908;-80
2021/09/08 00:26:37;;;;;;;;;;;;;;;;;;5053412;28;19912;-80
2021/09/08 00:29:02;;;;;;;;;;;;;;;;;;5053709;28;19909;-81
2021/09/08 00:31:27;;;;;;;;;;;;;;;;;;5052815;28;19954;-80
2021/09/08 00:33:53;;;;;;;;;;;;;;;;;;5036971;28;20271;-80
2021/09/08 00:36:18;;;;;;;;;;;;;;;;;;5036482;28;19915;-80
2021/09/08 00:38:43;;;;;;;;;;;;;;;;;;5054626;28;19916;-80
2021/09/08 00:41:09;;;;;;;;;;;;;;;;;;5053429;28;19909;-80
2021/09/08 00:43:34;;;;;;;;;;;;;;;;;;5053393;28;19962;-80
2021/09/08 00:45:59;;;;;;;;;;;;;;;;;;5053426;28;19912;-80
2021/09/08 00:48:24;;;;;;;;;;;;;;;;;;5068127;28;20362;-80
2021/09/08 00:50:50;;;;;;;;;;;;;;;;;;5039733;28;20354;-80
2021/09/08 00:53:15;;;;;;;;;;;;;;;;;;5039477;28;19912;-80
2021/09/08 00:55:41;;;;;;;;;;;;;;;;;;5056171;28;19912;-80
2021/09/08 00:58:06;;;;;;;;;;;;;;;;;;5056628;28;20242;-81
2021/09/08 01:00:31;;;;;;;;;;;;;;;;;;5072455;28;19999;-80
2021/09/08 01:02:57;;;;;;;;;;;;;;;;;;5055921;28;19942;-80
2021/09/08 01:05:24;;;;;;;;;;;;;;;;;;5056258;28;20239;-80
2021/09/08 01:07:49;;;;;;;;;;;;;;;;;;5055723;28;20278;-80
2021/09/08 01:10:14;;;;;;;;;;;;;;;;;;5072909;28;19916;-80
2021/09/08 01:12:39;;;;;;;;;;;;;;;;;;5056109;28;19913;-80
2021/09/08 01:15:05;;;;;;;;;;;;;;;;;;5056129;28;19912;-80
2021/09/08 01:17:30;;;;;;;;;;;;;;;;;;5055483;28;19924;-81
2021/09/08 01:19:56;;;;;;;;;;;;;;;;;;5072752;28;19912;-80
2021/09/08 01:22:22;;;;;;;;;;;;;;;;;;5072425;28;20369;-80
2021/09/08 01:24:47;;;;;;;;;;;;;;;;;;5055767;28;19908;-80
2021/09/08 01:27:12;;;;;;;;;;;;;;;;;;5055958;28;20452;-80
2021/09/08 01:29:37;;;;;;;;;;;;;;;;;;5072528;28;19914;-80
2021/09/08 01:32:03;;;;;;;;;;;;;;;;;;5055092;28;19950;-80
2021/09/08 01:34:29;;;;;;;;;;;;;;;;;;5055742;28;20381;-80
2021/09/08 01:36:54;;;;;;;;;;;;;;;;;;5071535;28;20338;-80
2021/09/08 01:39:20;;;;;;;;;;;;;;;;;;5055665;28;19990;-80
2021/09/08 01:41:46;;;;;;;;;;;;;;;;;;5055621;28;19916;-81
2021/09/08 01:44:11;;;;;;;;;;;;;;;;;;5071900;28;20439;-80
2021/09/08 01:46:36;;;;;;;;;;;;;;;;;;5054813;28;19994;-81
2021/09/08 01:49:02;;;;;;;;;;;;;;;;;;5038651;28;19919;-80
2021/09/08 01:51:27;;;;;;;;;;;;;;;;;;5071473;28;19962;-81
2021/09/08 01:53:52;;;;;;;;;;;;;;;;;;5071790;28;20380;-80
2021/09/08 01:56:18;;;;;;;;;;;;;;;;;;5072050;28;19908;-80
2021/09/08 01:58:43;;;;;;;;;;;;;;;;;;5054862;28;19908;-80
2021/09/08 02:01:08;;;;;;;;;;;;;;;;;;5053816;28;20286;-80
2021/09/08 02:03:33;;;;;;;;;;;;;;;;;;5060528;28;19915;-80
2021/09/08 02:05:59;;;;;;;;;;;;;;;;;;5034731;28;19918;-80
2021/09/08 02:08:24;;;;;;;;;;;;;;;;;;5069491;28;19912;-80
2021/09/08 02:10:49;;;;;;;;;;;;;;;;;;5055058;28;19915;-80
2021/09/08 02:13:15;;;;;;;;;;;;;;;;;;5054556;28;20007;-80
2021/09/08 02:15:40;;;;;;;;;;;;;;;;;;5054613;28;19946;-80
2021/09/08 02:18:06;;;;;;;;;;;;;;;;;;5054705;28;19949;-80
2021/09/08 02:20:31;;;;;;;;;;;;;;;;;;5037033;28;19961;-80
2021/09/08 02:22:56;;;;;;;;;;;;;;;;;;5051364;28;20374;-80
2021/09/08 02:25:23;;;;;;;;;;;;;;;;;;5034902;28;19912;-80
2021/09/08 02:27:49;;;;;;;;;;;;;;;;;;5034872;28;19909;-80
2021/09/08 02:30:15;;;;;;;;;;;;;;;;;;5018244;28;19909;-80
2021/09/08 02:32:40;;;;;;;;;;;;;;;;;;5034635;28;20282;-80
2021/09/08 02:35:06;;;;;;;;;;;;;;;;;;5051170;28;19912;-80
2021/09/08 02:37:31;;;;;;;;;;;;;;;;;;5034201;28;20007;-80
2021/09/08 02:39:56;;;;;;;;;;;;;;;;;;5034489;28;20369;-80
2021/09/08 02:42:22;;;;;;;;;;;;;;;;;;5051467;28;19960;-80
2021/09/08 02:44:48;;;;;;;;;;;;;;;;;;5034406;28;19975;-81
2021/09/08 02:47:14;;;;;;;;;;;;;;;;;;5037912;28;20007;-80
2021/09/08 02:49:39;;;;;;;;;;;;;;;;;;5054531;28;19966;-80
2021/09/08 02:52:04;;;;;;;;;;;;;;;;;;5070907;28;19915;-80
2021/09/08 02:54:30;;;;;;;;;;;;;;;;;;5054463;28;19912;-80
2021/09/08 02:56:55;;;;;;;;;;;;;;;;;;5054098;28;20392;-80
2021/09/08 02:59:20;;;;;;;;;;;;;;;;;;5070695;28;19912;-80
2021/09/08 03:01:46;;;;;;;;;;;;;;;;;;5053701;28;19912;-80
2021/09/08 03:04:11;;;;;;;;;;;;;;;;;;5070793;28;19912;-80
2021/09/08 03:06:37;;;;;;;;;;;;;;;;;;5054231;28;19937;-80
2021/09/08 03:09:02;;;;;;;;;;;;;;;;;;5070701;28;19912;-80
2021/09/08 03:11:28;;;;;;;;;;;;;;;;;;5071097;28;19908;-80
2021/09/08 03:13:53;;;;;;;;;;;;;;;;;;5053669;28;19908;-79
2021/09/08 03:16:19;;;;;;;;;;;;;;;;;;5070983;28;20412;-80
2021/09/08 03:18:44;;;;;;;;;;;;;;;;;;5070077;28;19998;-80
2021/09/08 03:21:10;;;;;;;;;;;;;;;;;;5053957;28;19912;-80
2021/09/08 03:23:35;;;;;;;;;;;;;;;;;;5070749;28;19995;-80
2021/09/08 03:26:00;;;;;;;;;;;;;;;;;;5070747;28;19917;-80
2021/09/08 03:28:26;;;;;;;;;;;;;;;;;;5053891;28;19919;-80
2021/09/08 03:30:51;;;;;;;;;;;;;;;;;;5070135;28;19962;-80
2021/09/08 03:33:16;;;;;;;;;;;;;;;;;;5070580;28;20006;-80
2021/09/08 03:35:44;;;;;;;;;;;;;;;;;;5070712;28;19955;-80
2021/09/08 03:38:09;;;;;;;;;;;;;;;;;;5071050;28;19962;-80
2021/09/08 03:40:35;;;;;;;;;;;;;;;;;;5054126;28;19909;-80
2021/09/08 03:43:00;;;;;;;;;;;;;;;;;;5053730;28;19916;-80
2021/09/08 03:45:25;;;;;;;;;;;;;;;;;;5070145;28;19958;-80
2021/09/08 03:47:51;;;;;;;;;;;;;;;;;;5064416;28;20201;-80
2021/09/08 03:50:16;;;;;;;;;;;;;;;;;;5065369;28;20019;-80
2021/09/08 03:52:41;;;;;;;;;;;;;;;;;;5068494;28;19912;-80
2021/09/08 03:55:07;;;;;;;;;;;;;;;;;;5065700;28;19916;-79
2021/09/08 03:57:32;;;;;;;;;;;;;;;;;;5090641;28;19916;-79
2021/09/08 03:59:58;;;;;;;;;;;;;;;;;;5091176;28;19954;-79
2021/09/08 04:02:23;;;;;;;;;;;;;;;;;;5073521;28;19916;-80
2021/09/08 04:04:48;;;;;;;;;;;;;;;;;;5073880;28;19908;-80
2021/09/08 04:07:13;;;;;;;;;;;;;;;;;;5090350;28;20362;-80
2021/09/08 04:09:39;;;;;;;;;;;;;;;;;;5091072;28;19908;-80
2021/09/08 04:12:04;;;;;;;;;;;;;;;;;;5090871;28;19958;-80
2021/09/08 04:14:31;;;;;;;;;;;;;;;;;;5090321;28;19908;-80
2021/09/08 04:16:56;;;;;;;;;;;;;;;;;;5072560;28;20397;-80
2021/09/08 04:19:21;;;;;;;;;;;;;;;;;;5090457;28;19916;-80
2021/09/08 04:21:47;;;;;;;;;;;;;;;;;;5090899;28;20007;-80
2021/09/08 04:24:12;;;;;;;;;;;;;;;;;;5073682;28;19915;-80
2021/09/08 04:26:38;;;;;;;;;;;;;;;;;;5090801;28;19931;-80
2021/09/08 04:29:03;;;;;;;;;;;;;;;;;;5073158;28;19908;-80
2021/09/08 04:31:28;;;;;;;;;;;;;;;;;;5090029;28;19908;-79
2021/09/08 04:33:53;;;;;;;;;;;;;;;;;;5073826;28;19912;-80
2021/09/08 04:36:19;;;;;;;;;;;;;;;;;;5090495;28;19908;-80
2021/09/08 04:38:47;;;;;;;;;;;;;;;;;;5090268;28;20023;-80
2021/09/08 04:41:12;;;;;;;;;;;;;;;;;;5073500;28;19914;-80
2021/09/08 04:43:38;;;;;;;;;;;;;;;;;;5089701;28;19946;-80
2021/09/08 04:46:03;;;;;;;;;;;;;;;;;;5073204;28;19981;-80
2021/09/08 04:48:29;;;;;;;;;;;;;;;;;;5077414;28;19961;-80
2021/09/08 04:50:54;;;;;;;;;;;;;;;;;;5056204;28;19912;-80
2021/09/08 04:53:19;;;;;;;;;;;;;;;;;;5056580;28;19915;-79
2021/09/08 04:55:45;;;;;;;;;;;;;;;;;;5066041;28;19909;-80
2021/09/08 04:58:10;;;;;;;;;;;;;;;;;;5036087;28;19923;-80
2021/09/08 05:00:35;;;;;;;;;;;;;;;;;;5036146;28;19939;-80
2021/09/08 05:03:01;;;;;;;;;;;;;;;;;;5035803;28;20094;-80
2021/09/08 05:05:26;;;;;;;;;;;;;;;;;;5036624;28;20286;-79
2021/09/08 05:07:51;;;;;;;;;;;;;;;;;;5035953;28;19916;-80
2021/09/08 05:10:17;;;;;;;;;;;;;;;;;;5036664;28;20337;-80
2021/09/08 05:12:42;;;;;;;;;;;;;;;;;;5035918;28;19908;-80
2021/09/08 05:15:08;;;;;;;;;;;;;;;;;;5036234;28;19916;-80
2021/09/08 05:17:33;;;;;;;;;;;;;;;;;;5019202;28;19912;-80
2021/09/08 05:19:58;;;;;;;;;;;;;;;;;;5036178;28;20005;-80
2021/09/08 05:22:23;;;;;;;;;;;;;;;;;;5052735;28;19920;-80
2021/09/08 05:24:49;;;;;;;;;;;;;;;;;;5052260;28;20389;-80
2021/09/08 05:27:14;;;;;;;;;;;;;;;;;;5035737;28;19908;-80
2021/09/08 05:29:39;;;;;;;;;;;;;;;;;;5035947;28;19916;-79
2021/09/08 05:32:05;;;;;;;;;;;;;;;;;;5035632;28;19916;-82
2021/09/08 05:34:31;;;;;;;;;;;;;;;;;;5019711;28;19916;-86
2021/09/08 05:36:57;;;;;;;;;;;;;;;;;;5035052;28;20003;-86
2021/09/08 05:39:23;;;;;;;;;;;;;;;;;;5037783;28;19959;-86
2021/09/08 05:41:48;;;;;;;;;;;;;;;;;;5052062;28;19913;-84
2021/09/08 05:44:13;;;;;;;;;;;;;;;;;;5052352;28;19909;-86
2021/09/08 05:46:39;;;;;;;;;;;;;;;;;;5052022;28;19958;-82
2021/09/08 05:49:04;;;;;;;;;;;;;;;;;;5054996;28;19908;-84
2021/09/08 05:51:29;;;;;;;;;;;;;;;;;;5038557;28;20011;-84
2021/09/08 05:53:55;;;;;;;;;;;;;;;;;;5038525;28;20929;-84
2021/09/08 05:56:20;;;;;;;;;;;;;;;;;;5055136;28;19946;-85
2021/09/08 05:58:45;;;;;;;;;;;;;;;;;;5054913;28;19970;-86
2021/09/08 06:01:11;;;;;;;;;;;;;;;;;;5071869;28;19955;-86
2021/09/08 06:03:36;;;;;;;;;;;;;;;;;;5055140;28;20002;-85
2021/09/08 06:06:01;;;;;;;;;;;;;;;;;;5054769;28;19919;-83
2021/09/08 06:08:28;;;;;;;;;;;;;;;;;;5054692;28;19916;-83
2021/09/08 06:10:53;;;;;;;;;;;;;;;;;;5054805;28;19962;-81
2021/09/08 06:13:19;;;;;;;;;;;;;;;;;;5070765;28;19951;-81
2021/09/08 06:15:44;;;;;;;;;;;;;;;;;;5054582;28;19916;-80
2021/09/08 06:18:11;;;;;;;;;;;;;;;;;;5071174;28;19920;-81
2021/09/08 06:20:36;;;;;;;;;;;;;;;;;;5054874;28;19924;-81
2021/09/08 06:23:01;;;;;;;;;;;;;;;;;;5055028;28;19912;-81
2021/09/08 06:25:28;;;;;;;;;;;;;;;;;;5054390;28;19916;-80
2021/09/08 06:27:53;;;;;;;;;;;;;;;;;;5054251;28;19910;-81
2021/09/08 06:30:18;;;;;;;;;;;;;;;;;;5071127;28;20273;-80
2021/09/08 06:32:44;;;;;;;;;;;;;;;;;;5053239;28;19962;-79
2021/09/08 06:35:09;;;;;;;;;;;;;;;;;;5053004;28;20005;-79
2021/09/08 06:37:34;;;;;;;;;;;;;;;;;;5042473;28;19916;-80
2021/09/08 06:39:59;;;;;;;;;;;;;;;;;;5050252;28;19979;-79
2021/09/08 06:42:25;;;;;;;;;;;;;;;;;;5033471;28;19924;-80
2021/09/08 06:44:53;;;;;;;;;;;;;;;;;;5034209;28;19913;-80
2021/09/08 06:47:22;;;;;;;;;;;;;;;;;;5040180;28;19924;-80
2021/09/08 06:49:47;;;;;;;;;;;;;;;;;;5054246;28;19916;-80
2021/09/08 06:52:13;;;;;;;;;;;;;;;;;;5053912;28;19908;-80
2021/09/08 06:54:38;;;;;;;;;;;;;;;;;;5048101;28;19912;-79
2021/09/08 06:57:03;;;;;;;;;;;;;;;;;;5070432;28;19908;-80
2021/09/08 06:59:28;;;;;;;;;;;;;;;;;;5044367;28;19951;-79
2021/09/08 07:01:54;;;;;;;;;;;;;;;;;;5067165;28;19915;-80
2021/09/08 07:04:21;;;;;;;;;;;;;;;;;;5051221;28;19913;-79
2021/09/08 07:06:46;;;;;;;;;;;;;;;;;;5050091;28;19914;-79
2021/09/08 07:09:12;;;;;;;;;;;;;;;;;;5051547;28;19912;-79
2021/09/08 07:11:37;;;;;;;;;;;;;;;;;;5076368;28;20344;-80
2021/09/08 07:14:03;;;;;;;;;;;;;;;;;;5037441;28;19909;-80
2021/09/08 07:16:29;;;;;;;;;;;;;;;;;;5053433;28;19909;-79
2021/09/08 07:18:54;;;;;;;;;;;;;;;;;;5037042;28;19922;-80
2021/09/08 07:21:20;;;;;;;;;;;;;;;;;;5053723;28;19908;-80
2021/09/08 07:23:45;;;;;;;;;;;;;;;;;;5053624;28;19912;-80
2021/09/08 07:26:10;;;;;;;;;;;;;;;;;;5074320;28;19943;-80
2021/09/08 07:28:36;;;;;;;;;;;;;;;;;;5058218;28;19913;-79
2021/09/08 07:31:01;;;;;;;;;;;;;;;;;;5074186;28;19917;-80
2021/09/08 07:33:26;;;;;;;;;;;;;;;;;;5074571;28;20489;-79
2021/09/08 07:35:52;;;;;;;;;;;;;;;;;;5058076;28;19912;-80
2021/09/08 07:38:18;;;;;;;;;;;;;;;;;;5057901;28;19908;-80
2021/09/08 07:40:43;;;;;;;;;;;;;;;;;;5057744;28;19999;-80
2021/09/08 07:43:08;;;;;;;;;;;;;;;;;;5075457;28;20022;-79
2021/09/08 07:45:33;;;;;;;;;;;;;;;;;;5052614;28;20392;-80
2021/09/08 07:47:59;;;;;;;;;;;;;;;;;;5063091;28;19924;-79
2021/09/08 07:50:24;;;;;;;;;;;;;;;;;;5040170;28;20313;-79
2021/09/08 07:52:49;;;;;;;;;;;;;;;;;;5087778;28;19908;-80
2021/09/08 07:55:15;;;;;;;;;;;;;;;;;;5080157;28;20423;-80
2021/09/08 07:57:40;;;;;;;;;;;;;;;;;;5074118;28;20267;-80
2021/09/08 08:00:05;;;;;;;;;;;;;;;;;;5057396;28;20358;-79
2021/09/08 08:02:31;;;;;;;;;;;;;;;;;;5056942;28;20385;-79
2021/09/08 08:04:56;;;;;;;;;;;;;;;;;;5074032;28;19916;-79
2021/09/08 08:07:21;;;;;;;;;;;;;;;;;;5073449;28;20402;-79
2021/09/08 08:09:46;;;;;;;;;;;;;;;;;;5074040;28;19931;-79
2021/09/08 08:12:12;;;;;;;;;;;;;;;;;;5056957;28;19961;-79
2021/09/08 08:14:39;;;;;;;;;;;;;;;;;;5057252;28;19908;-79
2021/09/08 08:17:05;;;;;;;;;;;;;;;;;;5073409;28;20396;-79
2021/09/08 08:19:30;;;;;;;;;;;;;;;;;;5073677;28;19939;-79
2021/09/08 08:21:55;;;;;;;;;;;;;;;;;;5073426;28;19935;-81
2021/09/08 08:24:21;;;;;;;;;;;;;;;;;;5073527;28;20285;-82
2021/09/08 08:26:46;;;;;;;;;;;;;;;;;;5073031;28;19916;-83
2021/09/08 08:29:11;;;;;;;;;;;;;;;;;;5057406;28;20262;-83
2021/09/08 08:31:37;;;;;;;;;;;;;;;;;;5035709;28;19912;-82
2021/09/08 08:34:02;;;;;;;;;;;;;;;;;;5037083;28;19909;-82
2021/09/08 08:36:28;;;;;;;;;;;;;;;;;;5036031;28;19908;-82
2021/09/08 08:38:54;;;;;;;;;;;;;;;;;;5036603;28;19908;-81
2021/09/08 08:41:21;;;;;;;;;;;;;;;;;;5035159;28;19915;-81
2021/09/08 08:43:46;;;;;;;;;;;;;;;;;;5034847;28;19943;-81
2021/09/08 08:46:11;;;;;;;;;;;;;;;;;;5035748;28;19920;-81
2021/09/08 08:48:37;;;;;;;;;;;;;;;;;;5052557;28;19923;-83
2021/09/08 08:51:02;;;;;;;;;;;;;;;;;;5056105;28;19912;-81
2021/09/08 08:53:27;;;;;;;;;;;;;;;;;;5039955;28;19913;-81
2021/09/08 08:55:53;;;;;;;;;;;;;;;;;;5039297;28;20423;-82
2021/09/08 08:58:18;;;;;;;;;;;;;;;;;;5055215;28;19994;-82
2021/09/08 09:00:43;;;;;;;;;;;;;;;;;;5055819;28;19908;-81
2021/09/08 09:03:09;;;;;;;;;;;;;;;;;;5072818;28;20332;-81
2021/09/08 09:05:35;;;;;;;;;;;;;;;;;;5056236;28;19908;-81
2021/09/08 09:08:00;;;;;;;;;;;;;;;;;;5055798;28;20389;-81
2021/09/08 09:10:25;;;;;;;;;;;;;;;;;;5072725;28;19951;-81
2021/09/08 09:12:50;;;;;;;;;;;;;;;;;;5055811;28;19919;-81
2021/09/08 09:15:20;;;;;;;;;;;;;;;;;;5056171;28;19951;-81
2021/09/08 09:17:46;;;;;;;;;;;;;;;;;;5055810;28;19924;-82
2021/09/08 09:20:13;;;;;;;;;;;;;;;;;;5055886;28;19912;-81
2021/09/08 09:22:38;;;;;;;;;;;;;;;;;;5055883;28;19908;-81
2021/09/08 09:25:04;;;;;;;;;;;;;;;;;;5053224;28;19931;-81
2021/09/08 09:27:32;;;;;;;;;;;;;;;;;;5069144;28;20369;-82
2021/09/08 09:30:02;;;;;;;;;;;;;;;;;;5052664;28;19946;-81
2021/09/08 09:32:34;;;;;;;;;;;;;;;;;;5051715;28;19913;-81
2021/09/08 09:34:59;;;;;;;;;;;;;;;;;;5051642;28;19935;-81
2021/09/08 09:37:24;;;;;;;;;;;;;;;;;;5052319;28;20359;-81
2021/09/08 09:39:50;;;;;;;;;;;;;;;;;;5069184;28;19909;-81
2021/09/08 09:42:16;;;;;;;;;;;;;;;;;;5052284;28;19982;-81
2021/09/08 09:44:42;;;;;;;;;;;;;;;;;;5069127;28;20367;-81
2021/09/08 09:47:07;;;;;;;;;;;;;;;;;;5054803;28;19923;-82
2021/09/08 09:49:33;;;;;;;;;;;;;;;;;;5054149;28;19955;-82
2021/09/08 09:51:58;;;;;;;;;;;;;;;;;;5054874;28;19908;-81
2021/09/08 09:54:24;;;;;;;;;;;;;;;;;;5038714;28;19909;-81
2021/09/08 09:56:49;;;;;;;;;;;;;;;;;;5055071;28;20431;-84
2021/09/08 09:59:16;;;;;;;;;;;;;;;;;;5055300;28;19909;-82
2021/09/08 10:01:41;;;;;;;;;;;;;;;;;;5050688;28;19923;-83
2021/09/08 10:04:07;;;;;;;;;;;;;;;;;;5034684;28;19908;-83
2021/09/08 10:06:32;;;;;;;;;;;;;;;;;;5034827;28;20003;-84
2021/09/08 10:08:58;;;;;;;;;;;;;;;;;;5033487;28;19912;-83
2021/09/08 10:11:24;;;;;;;;;;;;;;;;;;5033069;28;19913;-83
2021/09/08 10:13:53;;;;;;;;;;;;;;;;;;5034283;28;19908;-83
2021/09/08 10:16:20;;;;;;;;;;;;;;;;;;5034711;28;20010;-82
2021/09/08 10:18:46;;;;;;;;;;;;;;;;;;5034383;28;20259;-83
2021/09/08 10:21:14;;;;;;;;;;;;;;;;;;5035135;28;19919;-84
2021/09/08 10:23:40;;;;;;;;;;;;;;;;;;5035304;28;19909;-83
2021/09/08 10:26:09;;;;;;;;;;;;;;;;;;5034969;28;19916;-80
2021/09/08 10:28:34;;;;;;;;;;;;;;;;;;5034672;28;19931;-80
2021/09/08 10:31:00;;;;;;;;;;;;;;;;;;5067296;28;19916;-80
2021/09/08 10:33:25;;;;;;;;;;;;;;;;;;5034469;28;19908;-80
2021/09/08 10:35:50;;;;;;;;;;;;;;;;;;5034245;28;19913;-81
2021/09/08 10:38:17;;;;;;;;;;;;;;;;;;5034664;28;19912;-81
2021/09/08 10:40:42;;;;;;;;;;;;;;;;;;5034519;28;19913;-80
2021/09/08 10:43:08;;;;;;;;;;;;;;;;;;5034277;28;19965;-80
2021/09/08 10:45:33;;;;;;;;;;;;;;;;;;5034851;28;19940;-80
2021/09/08 10:47:59;;;;;;;;;;;;;;;;;;5044956;28;20370;-80
2021/09/08 10:50:43;;;;;;;;;;;;;;;;;;5037422;28;19909;-80
2021/09/08 10:53:21;;;;;;;;;;;;;;;;;;5054398;28;19961;-79
2021/09/08 10:55:47;;;;;;;;;;;;;;;;;;5074941;28;19920;-79
2021/09/08 10:58:12;;;;;;;;;;;;;;;;;;5037131;28;19923;-80
2021/09/08 11:00:38;;;;;;;;;;;;;;;;;;5053062;28;19950;-80
2021/09/08 11:03:05;;;;;;;;;;;;;;;;;;5054247;28;19908;-81
2021/09/08 11:05:31;;;;;;;;;;;;;;;;;;5054469;28;19908;-81
2021/09/08 11:07:56;;;;;;;;;;;;;;;;;;5037346;28;20293;-81
2021/09/08 11:10:31;;;;;;;;;;;;;;;;;;5054136;28;20141;-81
2021/09/08 11:12:57;;;;;;;;;;;;;;;;;;5037141;28;19913;-82
2021/09/08 11:15:30;;;;;;;;;;;;;;;;;;5053606;28;19912;-82
2021/09/08 11:17:55;;;;;;;;;;;;;;;;;;5071053;28;19916;-82
2021/09/08 11:20:20;;;;;;;;;;;;;;;;;;5054169;28;19919;-81
2021/09/08 11:23:06;;;;;;;;;;;;;;;;;;5037464;28;20339;-83
2021/09/08 11:25:35;;;;;;;;;;;;;;;;;;5037548;28;20445;-83
2021/09/08 11:28:00;;;;;;;;;;;;;;;;;;5037531;28;19981;-82
2021/09/08 11:30:29;;;;;;;;;;;;;;;;;;5054205;28;19913;-83
2021/09/08 11:32:59;;;;;;;;;;;;;;;;;;5053836;28;19908;-83
2021/09/08 11:35:34;;;;;;;;;;;;;;;;;;5037447;28;19915;-83
2021/09/08 11:37:59;;;;;;;;;;;;;;;;;;5070934;28;20014;-80
2021/09/08 11:40:24;;;;;;;;;;;;;;;;;;5036942;28;20418;-80
2021/09/08 11:42:49;;;;;;;;;;;;;;;;;;5037234;28;19950;-80
2021/09/08 11:45:24;;;;;;;;;;;;;;;;;;5036602;28;20385;-80
2021/09/08 11:47:50;;;;;;;;;;;;;;;;;;5036674;28;19916;-79
2021/09/08 11:50:15;;;;;;;;;;;;;;;;;;5033948;28;19920;-80
2021/09/08 11:52:40;;;;;;;;;;;;;;;;;;5015499;28;20415;-80
2021/09/08 11:55:06;;;;;;;;;;;;;;;;;;5028571;28;19912;-80
2021/09/08 11:57:31;;;;;;;;;;;;;;;;;;5037047;28;19919;-82
2021/09/08 11:59:56;;;;;;;;;;;;;;;;;;5052854;28;19982;-82
2021/09/08 12:02:21;;;;;;;;;;;;;;;;;;5036970;28;19919;-87
2021/09/08 12:04:47;;;;;;;;;;;;;;;;;;5037168;28;19908;-81
2021/09/08 12:07:12;;;;;;;;;;;;;;;;;;5036863;28;20281;-81
2021/09/08 12:09:40;;;;;;;;;;;;;;;;;;5053878;28;19908;-81
2021/09/08 12:12:09;;;;;;;;;;;;;;;;;;5070743;28;20003;-82
2021/09/08 12:14:38;;;;;;;;;;;;;;;;;;5040383;28;19914;-84
2021/09/08 12:17:04;;;;;;;;;;;;;;;;;;5057032;28;19916;-82
2021/09/08 12:19:34;;;;;;;;;;;;;;;;;;5074208;28;20003;-85
2021/09/08 12:22:03;;;;;;;;;;;;;;;;;;5040376;28;20011;-81
2021/09/08 12:24:32;;;;;;;;;;;;;;;;;;5073676;28;20001;-83
2021/09/08 12:26:58;;;;;;;;;;;;;;;;;;5056864;28;19999;-82
2021/09/08 12:29:23;;;;;;;;;;;;;;;;;;5040230;28;20362;-83
2021/09/08 12:31:52;;;;;;;;;;;;;;;;;;5056697;28;19969;-83
2021/09/08 12:34:17;;;;;;;;;;;;;;;;;;5040295;28;19920;-83
2021/09/08 12:36:42;;;;;;;;;;;;;;;;;;5056934;28;19912;-84
2021/09/08 12:39:11;;;;;;;;;;;;;;;;;;5040427;28;19908;-83
2021/09/08 12:41:38;;;;;;;;;;;;;;;;;;5056896;28;19935;-83
2021/09/08 12:44:03;;;;;;;;;;;;;;;;;;5039980;28;19934;-83
2021/09/08 12:46:38;;;;;;;;;;;;;;;;;;5056419;28;19915;-83
2021/09/08 12:49:04;;;;;;;;;;;;;;;;;;5069988;28;20293;-83
2021/09/08 12:51:29;;;;;;;;;;;;;;;;;;5039972;28;19969;-83
2021/09/08 12:53:54;;;;;;;;;;;;;;;;;;5056704;28;19908;-83
2021/09/08 12:56:21;;;;;;;;;;;;;;;;;;5056416;28;20049;-83
2021/09/08 12:58:46;;;;;;;;;;;;;;;;;;5056068;28;19912;-83
2021/09/08 13:01:11;;;;;;;;;;;;;;;;;;5056176;28;20328;-83
2021/09/08 13:03:37;;;;;;;;;;;;;;;;;;5056186;28;19908;-82
2021/09/08 13:06:02;;;;;;;;;;;;;;;;;;5056393;28;19912;-83
2021/09/08 13:08:27;;;;;;;;;;;;;;;;;;5056027;28;20320;-83
2021/09/08 13:10:53;;;;;;;;;;;;;;;;;;5055913;28;19931;-83
2021/09/08 13:13:18;;;;;;;;;;;;;;;;;;5055893;28;19908;-83
2021/09/08 13:15:44;;;;;;;;;;;;;;;;;;5055945;28;19914;-83
2021/09/08 13:18:09;;;;;;;;;;;;;;;;;;5055687;28;19924;-83
2021/09/08 13:20:34;;;;;;;;;;;;;;;;;;5055900;28;19996;-81
2021/09/08 13:22:59;;;;;;;;;;;;;;;;;;5055269;28;19964;-82
2021/09/08 13:25:25;;;;;;;;;;;;;;;;;;5055786;28;19908;-82
2021/09/08 13:27:50;;;;;;;;;;;;;;;;;;5055497;28;19908;-82
2021/09/08 13:30:15;;;;;;;;;;;;;;;;;;5055831;28;19912;-82
2021/09/08 13:32:41;;;;;;;;;;;;;;;;;;5055454;28;19912;-82
2021/09/08 13:35:06;;;;;;;;;;;;;;;;;;5055486;28;19959;-82
2021/09/08 13:37:32;;;;;;;;;;;;;;;;;;5055514;28;20398;-81
2021/09/08 13:39:57;;;;;;;;;;;;;;;;;;5055727;28;19908;-82
2021/09/08 13:42:23;;;;;;;;;;;;;;;;;;5055415;28;19912;-82
2021/09/08 13:44:48;;;;;;;;;;;;;;;;;;5055455;28;20412;-82
2021/09/08 13:47:13;;;;;;;;;;;;;;;;;;5053121;28;19924;-82
2021/09/08 13:49:38;;;;;;;;;;;;;;;;;;5054491;28;19999;-82
2021/09/08 13:52:04;;;;;;;;;;;;;;;;;;5053916;28;20416;-82
2021/09/08 13:54:29;;;;;;;;;;;;;;;;;;5071620;28;19908;-82
2021/09/08 13:56:54;;;;;;;;;;;;;;;;;;5055297;28;20377;-82
2021/09/08 13:59:20;;;;;;;;;;;;;;;;;;5055299;28;20277;-82
2021/09/08 14:01:45;;;;;;;;;;;;;;;;;;5054682;28;19961;-82
2021/09/08 14:04:10;;;;;;;;;;;;;;;;;;5054774;28;19915;-82
2021/09/08 14:06:38;;;;;;;;;;;;;;;;;;5055229;28;20382;-83
2021/09/08 14:09:04;;;;;;;;;;;;;;;;;;5054648;28;19914;-82
2021/09/08 14:11:29;;;;;;;;;;;;;;;;;;5054852;28;20282;-82
2021/09/08 14:13:54;;;;;;;;;;;;;;;;;;5055258;28;20372;-82
2021/09/08 14:16:20;;;;;;;;;;;;;;;;;;5071419;28;19916;-82
2021/09/08 14:18:45;;;;;;;;;;;;;;;;;;5054440;28;19924;-82
2021/09/08 14:21:10;;;;;;;;;;;;;;;;;;5054886;28;19985;-83
2021/09/08 14:23:36;;;;;;;;;;;;;;;;;;5054646;28;20344;-82
2021/09/08 14:26:01;;;;;;;;;;;;;;;;;;5071231;28;19919;-82
2021/09/08 14:28:26;;;;;;;;;;;;;;;;;;5054806;28;19912;-82
2021/09/08 14:30:52;;;;;;;;;;;;;;;;;;5054054;28;19919;-82
2021/09/08 14:33:17;;;;;;;;;;;;;;;;;;5054620;28;19915;-82
2021/09/08 14:35:43;;;;;;;;;;;;;;;;;;5054002;28;19956;-82
2021/09/08 14:38:08;;;;;;;;;;;;;;;;;;5054283;28;19962;-82
2021/09/08 14:40:33;;;;;;;;;;;;;;;;;;5054365;28;20373;-82
2021/09/08 14:43:00;;;;;;;;;;;;;;;;;;5071052;28;20388;-82
2021/09/08 14:45:26;;;;;;;;;;;;;;;;;;5054452;28;20361;-82
2021/09/08 14:47:51;;;;;;;;;;;;;;;;;;5054074;28;20263;-82
2021/09/08 14:50:16;;;;;;;;;;;;;;;;;;5037843;28;19912;-82
2021/09/08 14:52:42;;;;;;;;;;;;;;;;;;5037286;28;19912;-82
2021/09/08 14:55:08;;;;;;;;;;;;;;;;;;5037691;28;19961;-82
2021/09/08 14:57:33;;;;;;;;;;;;;;;;;;5054438;28;19912;-82
2021/09/08 14:59:59;;;;;;;;;;;;;;;;;;5054397;28;20010;-82
2021/09/08 15:02:24;;;;;;;;;;;;;;;;;;5053986;28;19961;-82
2021/09/08 15:04:49;;;;;;;;;;;;;;;;;;5071049;28;19912;-82
2021/09/08 15:07:15;;;;;;;;;;;;;;;;;;5070159;28;19969;-82
2021/09/08 15:09:41;;;;;;;;;;;;;;;;;;5054374;28;19916;-82
2021/09/08 15:12:09;;;;;;;;;;;;;;;;;;5070905;28;20426;-82
2021/09/08 15:14:34;;;;;;;;;;;;;;;;;;5054960;28;19909;-82
2021/09/08 15:17:00;;;;;;;;;;;;;;;;;;5054564;28;19927;-82
2021/09/08 15:19:25;;;;;;;;;;;;;;;;;;5055544;28;20259;-81
2021/09/08 15:21:52;;;;;;;;;;;;;;;;;;5054800;28;20015;-81
2021/09/08 15:24:18;;;;;;;;;;;;;;;;;;5054671;28;20274;-82
2021/09/08 15:26:43;;;;;;;;;;;;;;;;;;5054398;28;19909;-81
2021/09/08 15:29:09;;;;;;;;;;;;;;;;;;5054148;28;20367;-82
2021/09/08 15:31:34;;;;;;;;;;;;;;;;;;5053443;28;19908;-82
2021/09/08 15:33:59;;;;;;;;;;;;;;;;;;5054106;28;19957;-82
2021/09/08 15:36:24;;;;;;;;;;;;;;;;;;5053531;28;19912;-82
2021/09/08 15:38:50;;;;;;;;;;;;;;;;;;5053648;28;19951;-82
2021/09/08 15:41:15;;;;;;;;;;;;;;;;;;5053896;28;19908;-82
2021/09/08 15:43:40;;;;;;;;;;;;;;;;;;5053954;28;19954;-82
2021/09/08 15:46:06;;;;;;;;;;;;;;;;;;5054509;28;19915;-83
2021/09/08 15:48:31;;;;;;;;;;;;;;;;;;5057032;28;19920;-82
2021/09/08 15:50:56;;;;;;;;;;;;;;;;;;5057418;28;20281;-83
2021/09/08 15:53:22;;;;;;;;;;;;;;;;;;5057756;28;19926;-82
2021/09/08 15:55:47;;;;;;;;;;;;;;;;;;5057560;28;20381;-83
2021/09/08 15:58:13;;;;;;;;;;;;;;;;;;5057298;28;19951;-83
2021/09/08 16:00:38;;;;;;;;;;;;;;;;;;5056838;28;19908;-83
2021/09/08 16:03:04;;;;;;;;;;;;;;;;;;5057250;28;19913;-83
2021/09/08 16:05:29;;;;;;;;;;;;;;;;;;5057349;28;20362;-83
2021/09/08 16:07:55;;;;;;;;;;;;;;;;;;5073879;28;19912;-83
2021/09/08 16:10:20;;;;;;;;;;;;;;;;;;5057029;28;20362;-83
2021/09/08 16:12:46;;;;;;;;;;;;;;;;;;5056141;28;19912;-83
2021/09/08 16:15:11;;;;;;;;;;;;;;;;;;5071805;28;20365;-83
2021/09/08 16:17:36;;;;;;;;;;;;;;;;;;5056671;28;19920;-84
2021/09/08 16:20:05;;;;;;;;;;;;;;;;;;5056909;28;20485;-84
2021/09/08 16:22:31;;;;;;;;;;;;;;;;;;5040380;28;19909;-83
2021/09/08 16:24:56;;;;;;;;;;;;;;;;;;5056755;28;19913;-84
2021/09/08 16:27:21;;;;;;;;;;;;;;;;;;5057051;28;19992;-83
2021/09/08 16:29:47;;;;;;;;;;;;;;;;;;5056869;28;19908;-83
2021/09/08 16:32:12;;;;;;;;;;;;;;;;;;5056286;28;19912;-89
2021/09/08 16:34:37;;;;;;;;;;;;;;;;;;5057136;28;20002;-86
2021/09/08 16:37:03;;;;;;;;;;;;;;;;;;5056807;28;20335;-83